Time;durP1;ratioP1;P1;durP2;ratioP2;P2;SDS_P1;SDS_P2;PMS_P1;PMS_P2;Temp;Humidity;BMP_temperature;BMP_pressure;BME280_temperature;BME280_humidity;BME280_pressure;Samples;Min_cycle;Max_cycle;Signal;HPM_P1;HPM_P2
2022/06/06 00:00:47;;;;;;;12.88;6.20;;;22.70;99.90;;;;;;5021261;28;20041;-72
2022/06/06 00:03:15;;;;;;;14.63;6.63;;;22.60;99.90;;;;;;5022332;28;20488;-73
2022/06/06 00:05:48;;;;;;;14.65;6.47;;;22.60;99.90;;;;;;5024544;28;20037;-71
2022/06/06 00:08:16;;;;;;;16.40;5.60;;;22.50;99.90;;;;;;5021358;28;20044;-72
2022/06/06 00:10:43;;;;;;;13.60;5.50;;;22.60;99.90;;;;;;5037005;28;20132;-71
2022/06/06 00:13:13;;;;;;;12.68;5.68;;;22.50;99.90;;;;;;5018942;28;20041;-72
2022/06/06 00:15:39;;;;;;;15.38;5.95;;;22.50;99.90;;;;;;5026292;28;21090;-72
2022/06/06 00:18:05;;;;;;;15.18;5.63;;;22.50;99.90;;;;;;5019344;28;20184;-72
2022/06/06 00:20:31;;;;;;;15.15;5.95;;;22.40;99.90;;;;;;5019018;28;20505;-71
2022/06/06 00:22:59;;;;;;;14.70;5.40;;;22.50;99.90;;;;;;5023496;28;20630;-71
2022/06/06 00:25:25;;;;;;;17.25;5.85;;;22.50;99.90;;;;;;5023732;28;20034;-72
2022/06/06 00:27:51;;;;;;;12.18;5.05;;;22.50;99.90;;;;;;5024879;28;20095;-71
2022/06/06 00:30:17;;;;;;;17.73;5.78;;;22.50;99.90;;;;;;5034875;28;20421;-73
2022/06/06 00:35:28;;;;;;;11.65;5.65;;;22.40;99.90;;;;;;5020848;28;20041;-71
2022/06/06 00:37:56;;;;;;;11.95;5.65;;;22.40;99.90;;;;;;5026647;28;20661;-71
2022/06/06 00:40:24;;;;;;;13.60;5.95;;;22.30;99.90;;;;;;5020140;28;20049;-72
2022/06/06 00:42:50;;;;;;;15.18;5.88;;;22.30;99.90;;;;;;5043017;28;20041;-71
2022/06/06 00:45:35;;;;;;;12.32;5.28;;;22.30;99.90;;;;;;5027803;28;20096;-72
2022/06/06 00:48:23;;;;;;;17.42;5.90;;;22.30;99.90;;;;;;5037056;28;20033;-71
2022/06/06 00:50:52;;;;;;;17.05;5.80;;;22.30;99.90;;;;;;5034013;28;20088;-73
2022/06/06 00:53:28;;;;;;;15.50;5.00;;;22.20;99.90;;;;;;5022095;28;20057;-72
2022/06/06 00:55:59;;;;;;;14.70;6.07;;;22.10;99.90;;;;;;5038598;28;20536;-71
2022/06/06 00:58:29;;;;;;;13.65;5.38;;;22.20;99.90;;;;;;5022563;28;20183;-72
2022/06/06 01:00:55;;;;;;;15.27;5.50;;;22.20;99.90;;;;;;5025729;28;20510;-72
2022/06/06 01:03:24;;;;;;;16.80;6.78;;;22.10;99.90;;;;;;5020497;28;20374;-71
2022/06/06 01:05:54;;;;;;;22.33;6.47;;;22.10;99.90;;;;;;5035786;28;20586;-71
2022/06/06 01:08:21;;;;;;;15.50;5.88;;;22.10;99.90;;;;;;5019915;28;20038;-71
2022/06/06 01:10:47;;;;;;;16.65;6.00;;;22.10;99.90;;;;;;5035061;28;20038;-72
2022/06/06 01:13:15;;;;;;;14.40;5.45;;;22.10;99.90;;;;;;5019725;28;20052;-72
2022/06/06 01:16:03;;;;;;;12.85;5.97;;;22.00;99.90;;;;;;5032484;28;20033;-72
2022/06/06 01:18:36;;;;;;;12.43;5.50;;;22.00;99.90;;;;;;5018968;28;20044;-72
2022/06/06 01:21:32;;;;;;;16.95;5.88;;;21.90;99.90;;;;;;5029259;28;20084;-71
2022/06/06 01:24:20;;;;;;;10.73;5.38;;;21.90;99.90;;;;;;5040376;28;20037;-72
2022/06/06 01:27:23;;;;;;;19.35;6.03;;;21.80;99.90;;;;;;5038393;28;20128;-73
2022/06/06 01:30:01;;;;;;;16.65;6.22;;;21.80;99.90;;;;;;5035905;28;20440;-72
2022/06/06 01:32:28;;;;;;;17.88;5.95;;;21.90;99.90;;;;;;5016871;28;20036;-72
2022/06/06 01:34:55;;;;;;;14.98;5.85;;;21.80;99.90;;;;;;5019961;28;20037;-73
2022/06/06 01:37:34;;;;;;;13.13;5.57;;;21.80;99.90;;;;;;5036866;28;20047;-71
2022/06/06 01:40:04;;;;;;;14.75;6.65;;;21.80;99.90;;;;;;5033119;28;20044;-72
2022/06/06 01:42:39;;;;;;;11.93;5.90;;;21.70;99.90;;;;;;5035565;28;20030;-71
2022/06/06 01:45:18;;;;;;;14.52;6.22;;;21.70;99.90;;;;;;5021631;28;20038;-72
2022/06/06 01:47:49;;;;;;;16.65;6.65;;;21.60;99.90;;;;;;5034225;28;20034;-72
2022/06/06 01:50:16;;;;;;;15.70;6.90;;;21.60;99.90;;;;;;5021799;28;20351;-72
2022/06/06 01:53:02;;;;;;;18.58;8.20;;;21.60;99.90;;;;;;5032117;28;20040;-71
2022/06/06 01:55:30;;;;;;;21.15;8.43;;;21.50;99.90;;;;;;5049823;28;20088;-72
2022/06/06 01:58:01;;;;;;;16.17;8.45;;;21.40;99.90;;;;;;5022729;28;20042;-72
2022/06/06 02:00:30;;;;;;;17.60;8.45;;;21.40;99.90;;;;;;5015960;28;20613;-71
2022/06/06 02:02:55;;;;;;;16.15;8.13;;;21.40;99.90;;;;;;5019013;28;20099;-71
2022/06/06 02:05:21;;;;;;;19.92;8.57;;;21.30;99.90;;;;;;5019472;28;20042;-71
2022/06/06 02:07:47;;;;;;;22.80;10.13;;;21.20;99.90;;;;;;5019849;28;20041;-71
2022/06/06 02:10:15;;;;;;;16.05;7.97;;;21.20;99.90;;;;;;5034279;28;20046;-71
2022/06/06 02:12:43;;;;;;;20.90;8.57;;;21.20;99.90;;;;;;5017463;28;20057;-72
2022/06/06 02:15:12;;;;;;;18.92;8.75;;;21.10;99.90;;;;;;5036287;28;20041;-71
2022/06/06 02:17:38;;;;;;;15.57;8.52;;;21.20;99.90;;;;;;5023821;28;20054;-71
2022/06/06 02:20:06;;;;;;;19.70;8.63;;;21.10;99.90;;;;;;5036878;28;20109;-72
2022/06/06 02:22:32;;;;;;;18.33;8.32;;;21.20;99.90;;;;;;5024823;28;20124;-72
2022/06/06 02:24:59;;;;;;;16.48;7.90;;;21.10;99.90;;;;;;5023860;28;20045;-71
2022/06/06 02:27:25;;;;;;;14.88;7.80;;;21.10;99.90;;;;;;5021024;28;20094;-71
2022/06/06 02:29:51;;;;;;;15.98;7.55;;;21.10;99.90;;;;;;5024463;28;20042;-72
2022/06/06 02:32:17;;;;;;;13.57;7.22;;;21.20;99.90;;;;;;5005189;28;20382;-71
2022/06/06 02:34:43;;;;;;;13.73;7.13;;;21.20;99.90;;;;;;5020428;28;20053;-72
2022/06/06 02:37:09;;;;;;;13.70;6.95;;;21.10;99.90;;;;;;5041118;28;20040;-71
2022/06/06 02:39:35;;;;;;;16.85;7.72;;;21.10;99.90;;;;;;5020619;28;20041;-71
2022/06/06 02:42:02;;;;;;;14.77;7.40;;;21.10;99.90;;;;;;5028436;28;20034;-70
2022/06/06 02:44:28;;;;;;;14.25;6.72;;;21.10;99.90;;;;;;5025059;28;20037;-72
2022/06/06 02:46:54;;;;;;;13.25;6.03;;;21.20;99.90;;;;;;5041384;28;20489;-71
2022/06/06 02:49:20;;;;;;;12.75;6.30;;;21.20;99.90;;;;;;5023617;28;20452;-72
2022/06/06 02:51:46;;;;;;;10.10;5.70;;;21.20;99.90;;;;;;5023946;28;20039;-71
2022/06/06 02:54:12;;;;;;;10.18;5.38;;;21.20;99.90;;;;;;5021689;28;20370;-71
2022/06/06 02:56:39;;;;;;;11.30;5.82;;;21.10;99.90;;;;;;5025135;28;20087;-72
2022/06/06 02:59:07;;;;;;;13.77;6.18;;;21.10;99.90;;;;;;5022148;28;20037;-72
2022/06/06 03:01:33;;;;;;;14.70;6.32;;;21.10;99.90;;;;;;5021465;28;20033;-71
2022/06/06 03:04:00;;;;;;;14.50;6.43;;;21.10;99.90;;;;;;5024160;28;20037;-71
2022/06/06 03:06:55;;;;;;;13.13;6.20;;;21.10;99.90;;;;;;5020425;28;20053;-71
2022/06/06 03:09:32;;;;;;;10.55;5.88;;;21.10;99.90;;;;;;5023783;28;20562;-71
2022/06/06 03:12:12;;;;;;;15.68;6.97;;;21.00;99.90;;;;;;5050604;28;20032;-72
2022/06/06 03:15:01;;;;;;;14.70;6.40;;;20.90;99.90;;;;;;5036977;28;20061;-71
2022/06/06 03:20:47;;;;;;;12.40;6.05;;;20.90;99.90;;;;;;5021667;28;20065;-71
2022/06/06 03:23:20;;;;;;;10.80;6.15;;;20.80;99.90;;;;;;5024126;28;20379;-72
2022/06/06 03:25:49;;;;;;;13.05;6.15;;;20.80;99.90;;;;;;5036661;28;20080;-71
2022/06/06 03:28:40;;;;;;;11.80;5.85;;;20.80;99.90;;;;;;5020878;28;20053;-72
2022/06/06 03:31:39;;;;;;;13.40;6.53;;;20.80;99.90;;;;;;5017716;28;20041;-71
2022/06/06 03:34:24;;;;;;;11.48;5.78;;;20.80;99.90;;;;;;5025267;28;20045;-71
2022/06/06 03:37:32;;;;;;;11.82;6.05;;;20.80;99.90;;;;;;5022892;28;20052;-72
2022/06/06 03:39:57;;;;;;;13.77;6.40;;;20.80;99.90;;;;;;5024843;28;20080;-72
2022/06/06 03:42:38;;;;;;;15.40;6.15;;;20.70;99.90;;;;;;5023629;28;20065;-73
2022/06/06 03:45:11;;;;;;;15.05;6.90;;;20.70;99.90;;;;;;5021945;28;20120;-71
2022/06/06 03:47:55;;;;;;;;;;;20.80;99.90;;;;;;5021027;28;20497;-71
2022/06/06 03:50:42;;;;;;;16.70;6.85;;;20.80;99.90;;;;;;5022255;28;19936;-71
2022/06/06 03:53:15;;;;;;;15.35;7.53;;;20.80;99.90;;;;;;5019898;28;20089;-72
2022/06/06 03:56:10;;;;;;;15.70;7.10;;;20.80;99.90;;;;;;5032446;28;20131;-72
2022/06/06 03:58:37;;;;;;;18.73;7.55;;;20.80;99.90;;;;;;5023255;28;20041;-72
2022/06/06 04:01:08;;;;;;;15.85;7.00;;;20.80;99.90;;;;;;5051156;28;20520;-73
2022/06/06 04:03:34;;;;;;;16.27;7.50;;;20.80;99.90;;;;;;5020154;28;20044;-72
2022/06/06 04:06:05;;;;;;;17.48;7.60;;;20.80;99.90;;;;;;5019745;28;20037;-72
2022/06/06 04:08:32;;;;;;;13.10;7.07;;;20.80;99.90;;;;;;5013883;28;20045;-71
2022/06/06 04:11:24;;;;;;;16.35;7.57;;;20.90;99.90;;;;;;5017688;28;20050;-72
2022/06/06 04:14:22;;;;;;;15.93;7.13;;;20.80;99.90;;;;;;5019703;28;20037;-71
2022/06/06 04:17:07;;;;;;;13.95;7.47;;;20.80;99.90;;;;;;5006642;28;20105;-72
2022/06/06 04:19:52;;;;;;;17.27;7.93;;;20.80;99.90;;;;;;5018173;28;20495;-72
2022/06/06 04:22:21;;;;;;;16.50;7.93;;;20.80;99.90;;;;;;5020623;28;20037;-72
2022/06/06 04:24:56;;;;;;;14.57;7.00;;;20.80;99.90;;;;;;5020676;28;20044;-71
2022/06/06 04:27:48;;;;;;;13.77;8.43;;;20.80;99.90;;;;;;5037937;28;20120;-73
2022/06/06 04:30:24;;;;;;;14.65;7.80;;;20.80;99.90;;;;;;5022065;28;20037;-71
2022/06/06 04:33:11;;;;;;;15.85;8.30;;;20.70;99.90;;;;;;5039753;28;20133;-71
2022/06/06 04:35:43;;;;;;;12.93;7.03;;;20.70;99.90;;;;;;5022482;28;20044;-72
2022/06/06 04:38:21;;;;;;;20.48;7.72;;;20.80;99.90;;;;;;5036564;28;20049;-72
2022/06/06 04:40:54;;;;;;;20.38;7.88;;;20.80;99.90;;;;;;5023384;28;20091;-71
2022/06/06 04:43:26;;;;;;;13.52;7.15;;;20.80;99.90;;;;;;5020449;28;20041;-73
2022/06/06 04:46:18;;;;;;;13.15;7.18;;;20.90;99.90;;;;;;5035419;28;20033;-71
2022/06/06 04:48:46;;;;;;;17.73;7.70;;;20.90;99.90;;;;;;5009710;28;20080;-71
2022/06/06 04:51:17;;;;;;;15.02;7.43;;;20.80;99.90;;;;;;5026544;28;20041;-72
2022/06/06 04:53:46;;;;;;;16.55;7.63;;;20.90;99.90;;;;;;5027361;28;20079;-72
2022/06/06 04:56:15;;;;;;;14.13;6.82;;;20.90;99.90;;;;;;5019313;28;20042;-72
2022/06/06 04:58:43;;;;;;;18.23;7.15;;;20.90;99.90;;;;;;5036545;28;20037;-72
2022/06/06 05:01:12;;;;;;;20.00;7.88;;;20.90;99.90;;;;;;5019462;28;20048;-72
2022/06/06 05:03:38;;;;;;;14.93;7.57;;;21.00;99.90;;;;;;5024586;28;20048;-72
2022/06/06 05:06:26;;;;;;;18.15;7.70;;;21.00;99.90;;;;;;5031947;28;20049;-73
2022/06/06 05:09:10;;;;;;;14.25;6.97;;;21.00;99.90;;;;;;5023101;28;20102;-72
2022/06/06 05:11:59;;;;;;;18.38;7.20;;;21.00;99.90;;;;;;5050665;28;20034;-71
2022/06/06 05:14:52;;;;;;;15.82;7.38;;;21.10;99.90;;;;;;5015652;28;20042;-71
2022/06/06 05:17:46;;;;;;;15.27;7.03;;;21.20;99.90;;;;;;5016168;28;20049;-71
2022/06/06 05:20:19;;;;;;;11.93;6.70;;;21.20;99.90;;;;;;5017497;28;20051;-72
2022/06/06 05:23:02;;;;;;;13.02;8.00;;;21.20;99.90;;;;;;5017490;28;20091;-73
2022/06/06 05:25:56;;;;;;;14.40;7.75;;;21.40;99.90;;;;;;5018740;28;20124;-72
2022/06/06 05:28:42;;;;;;;12.40;7.07;;;21.40;99.90;;;;;;5023932;28;21843;-72
2022/06/06 05:31:15;;;;;;;18.58;6.43;;;21.50;99.90;;;;;;5034905;28;20041;-71
2022/06/06 05:33:56;;;;;;;11.27;5.90;;;21.60;99.90;;;;;;5030054;28;20040;-71
2022/06/06 05:36:42;;;;;;;12.45;6.68;;;21.50;99.90;;;;;;5035580;28;21185;-71
2022/06/06 05:39:45;;;;;;;12.55;6.28;;;21.60;99.90;;;;;;5036009;28;20057;-72
2022/06/06 05:42:38;;;;;;;13.00;6.30;;;21.80;99.90;;;;;;5003639;28;20426;-72
2022/06/06 05:45:28;;;;;;;11.70;5.15;;;21.80;99.90;;;;;;5033743;28;20381;-72
2022/06/06 05:48:12;;;;;;;11.38;5.15;;;21.90;99.90;;;;;;5021063;28;20039;-71
2022/06/06 05:50:57;;;;;;;13.02;4.78;;;22.00;99.90;;;;;;5020021;28;20135;-72
2022/06/06 05:53:36;;;;;;;9.80;4.70;;;22.00;99.90;;;;;;5021016;28;20053;-72
2022/06/06 05:56:37;;;;;;;8.00;3.70;;;22.00;99.90;;;;;;5018130;28;20045;-72
2022/06/06 05:59:24;;;;;;;8.68;3.95;;;22.10;99.90;;;;;;5015819;28;20063;-72
2022/06/06 06:01:50;;;;;;;12.15;4.00;;;22.10;99.90;;;;;;5018021;28;20121;-72
2022/06/06 06:04:25;;;;;;;7.88;4.00;;;22.20;99.90;;;;;;4960930;28;1713036;-73
2022/06/06 06:07:07;;;;;;;11.48;4.25;;;22.30;99.90;;;;;;5035245;28;20033;-72
2022/06/06 06:09:55;;;;;;;9.48;4.07;;;22.30;99.90;;;;;;5019982;28;20045;-72
2022/06/06 06:13:16;;;;;;;7.63;3.92;;;22.40;99.90;;;;;;5022698;28;20026;-73
2022/06/06 06:15:44;;;;;;;7.28;3.80;;;22.50;99.90;;;;;;5007224;28;20109;-73
2022/06/06 06:18:40;;;;;;;8.10;3.58;;;22.50;99.90;;;;;;4999011;28;20042;-72
2022/06/06 06:21:19;;;;;;;7.65;3.67;;;22.50;99.90;;;;;;4995438;28;20045;-71
2022/06/06 06:24:02;;;;;;;7.10;3.55;;;22.60;99.90;;;;;;5019397;28;20069;-72
2022/06/06 06:26:30;;;;;;;7.90;3.50;;;22.60;99.90;;;;;;5018933;28;20041;-73
2022/06/06 06:29:02;;;;;;;7.18;3.03;;;22.60;99.90;;;;;;5018486;28;20036;-72
2022/06/06 06:31:41;;;;;;;;;;;22.60;99.90;;;;;;5019662;28;20033;-72
2022/06/06 06:34:19;;;;;;;8.27;3.05;;;22.70;99.90;;;;;;5020892;28;19920;-72
2022/06/06 06:36:57;;;;;;;6.93;3.50;;;22.60;99.90;;;;;;5023504;28;20040;-72
2022/06/06 06:39:29;;;;;;;10.88;3.72;;;22.70;99.90;;;;;;5014207;28;20041;-73
2022/06/06 06:42:59;;;;;;;6.93;2.92;;;22.60;99.90;;;;;;5030219;28;20507;-73
2022/06/06 06:45:31;;;;;;;9.98;3.40;;;22.70;99.90;;;;;;4983349;28;20037;-72
2022/06/06 06:48:04;;;;;;;5.55;3.30;;;22.80;99.90;;;;;;4985444;28;20030;-73
2022/06/06 06:50:57;;;;;;;7.25;3.20;;;22.80;99.90;;;;;;4995395;28;20132;-74
2022/06/06 06:53:26;;;;;;;7.15;3.30;;;22.90;99.90;;;;;;4997490;28;20494;-77
2022/06/06 06:55:57;;;;;;;7.95;3.45;;;23.00;99.90;;;;;;5002508;28;20061;-77
2022/06/06 06:58:52;;;;;;;9.70;3.58;;;23.10;99.90;;;;;;4995337;28;20034;-76
2022/06/06 07:10:42;;;;;;;7.40;3.45;;;23.30;99.90;;;;;;4996643;28;20127;-78
2022/06/06 07:13:38;;;;;;;7.65;3.50;;;23.30;99.90;;;;;;5005644;28;20129;-77
2022/06/06 07:16:33;;;;;;;9.18;3.72;;;23.30;99.90;;;;;;5001093;28;20205;-78
2022/06/06 07:19:08;;;;;;;5.35;3.33;;;23.30;99.90;;;;;;5010965;28;20517;-77
2022/06/06 07:21:36;;;;;;;8.65;3.22;;;23.40;99.90;;;;;;4999720;28;20053;-78
2022/06/06 07:24:06;;;;;;;7.30;3.42;;;23.50;99.90;;;;;;5005018;28;20081;-74
2022/06/06 07:26:42;;;;;;;11.45;3.92;;;23.50;99.90;;;;;;5043639;28;20045;-79
2022/06/06 07:29:15;;;;;;;7.07;3.45;;;23.70;99.90;;;;;;5027768;28;20046;-78
2022/06/06 07:31:49;;;;;;;10.13;3.60;;;23.90;99.90;;;;;;5050445;28;20068;-74
2022/06/06 07:34:39;;;;;;;7.55;3.53;;;23.90;99.90;;;;;;5040828;28;20063;-77
2022/06/06 07:37:05;;;;;;;7.20;3.42;;;23.90;99.90;;;;;;4992791;28;20079;-75
2022/06/06 07:39:55;;;;;;;6.07;3.15;;;24.00;99.90;;;;;;4989924;28;20049;-76
2022/06/06 07:42:49;;;;;;;10.27;3.72;;;24.00;99.90;;;;;;5035816;28;20041;-77
2022/06/06 07:45:29;;;;;;;6.45;3.45;;;24.20;99.90;;;;;;5039125;28;20076;-75
2022/06/06 07:48:32;;;;;;;11.40;3.60;;;24.00;99.90;;;;;;5009996;28;20037;-74
2022/06/06 07:51:08;;;;;;;9.32;3.60;;;24.10;99.90;;;;;;5022687;28;20034;-73
2022/06/06 07:53:45;;;;;;;7.38;3.28;;;24.10;99.90;;;;;;5004852;28;20041;-74
2022/06/06 07:56:36;;;;;;;10.32;3.70;;;24.00;99.90;;;;;;5006824;28;20026;-73
2022/06/06 07:59:22;;;;;;;10.02;3.83;;;24.00;99.90;;;;;;5050277;28;20033;-71
2022/06/06 08:01:50;;;;;;;8.98;3.67;;;24.10;99.90;;;;;;5025742;28;20042;-72
2022/06/06 08:04:52;;;;;;;7.93;4.10;;;24.10;99.90;;;;;;5025132;28;20120;-73
2022/06/06 08:07:34;;;;;;;11.00;4.13;;;24.20;99.90;;;;;;5052890;28;20041;-75
2022/06/06 08:10:15;;;;;;;6.97;3.80;;;24.20;99.90;;;;;;5023733;28;20034;-72
2022/06/06 08:13:08;;;;;;;6.60;3.90;;;24.10;99.90;;;;;;5038173;28;20493;-73
2022/06/06 08:15:45;;;;;;;8.20;4.30;;;24.30;99.90;;;;;;5023360;28;20424;-73
2022/06/06 08:18:17;;;;;;;8.95;4.10;;;24.40;99.90;;;;;;5035891;28;20037;-73
2022/06/06 08:20:50;;;;;;;7.28;3.88;;;24.40;99.90;;;;;;5022763;28;20049;-72
2022/06/06 08:23:19;;;;;;;8.55;3.95;;;24.70;99.90;;;;;;5036067;28;20060;-72
2022/06/06 08:25:49;;;;;;;7.05;3.13;;;24.60;99.90;;;;;;5023767;28;20196;-72
2022/06/06 08:28:16;;;;;;;7.15;2.78;;;24.30;99.90;;;;;;5026570;28;20064;-72
2022/06/06 08:30:44;;;;;;;4.85;2.50;;;24.40;99.90;;;;;;5032127;28;20135;-72
2022/06/06 08:33:11;;;;;;;7.68;2.78;;;24.40;99.90;;;;;;5031527;28;20078;-74
2022/06/06 08:35:48;;;;;;;10.82;3.15;;;24.50;99.90;;;;;;5021502;28;20111;-72
2022/06/06 08:38:43;;;;;;;8.05;3.17;;;24.70;99.90;;;;;;5044320;28;20486;-72
2022/06/06 08:41:15;;;;;;;5.60;2.92;;;24.50;99.90;;;;;;5033439;28;20468;-73
2022/06/06 08:44:02;;;;;;;7.72;3.03;;;24.60;99.90;;;;;;5019072;28;20049;-72
2022/06/06 08:46:38;;;;;;;5.10;2.60;;;24.70;99.90;;;;;;5018184;28;20504;-73
2022/06/06 08:53:00;;;;;;;5.47;2.25;;;24.70;99.90;;;;;;5022353;28;20051;-72
2022/06/06 08:55:56;;;;;;;7.90;3.20;;;24.80;99.90;;;;;;5000564;28;20517;-73
2022/06/06 08:58:28;;;;;;;6.93;2.90;;;24.90;99.90;;;;;;5023641;28;20098;-73
2022/06/06 09:01:14;;;;;;;5.85;2.83;;;24.90;99.90;;;;;;5033156;28;20038;-72
2022/06/06 09:03:43;;;;;;;6.82;2.63;;;25.00;99.90;;;;;;5033944;28;20041;-73
2022/06/06 09:06:41;;;;;;;8.38;3.13;;;25.40;99.90;;;;;;5029036;28;20049;-72
2022/06/06 09:09:31;;;;;;;5.88;2.80;;;25.50;99.90;;;;;;5022311;28;20053;-73
2022/06/06 09:12:18;;;;;;;4.45;2.38;;;25.40;99.90;;;;;;5037071;28;20032;-72
2022/06/06 09:15:04;;;;;;;7.70;3.13;;;25.60;99.90;;;;;;5031848;28;20385;-73
2022/06/06 09:17:44;;;;;;;6.03;2.95;;;25.40;99.90;;;;;;5020245;28;20033;-71
2022/06/06 09:20:37;;;;;;;4.47;2.60;;;25.50;99.90;;;;;;5034637;28;20076;-72
2022/06/06 09:23:31;;;;;;;5.07;2.63;;;25.60;99.90;;;;;;5035886;28;20103;-71
2022/06/06 09:26:15;;;;;;;5.43;2.78;;;25.80;99.90;;;;;;5022533;28;20053;-72
2022/06/06 09:28:46;;;;;;;5.93;2.80;;;25.80;99.90;;;;;;5019056;28;20044;-72
2022/06/06 09:31:34;;;;;;;6.65;2.78;;;26.10;99.90;;;;;;5032536;28;20049;-72
2022/06/06 09:34:25;;;;;;;7.32;2.83;;;26.30;99.90;;;;;;5040337;28;20065;-73
2022/06/06 09:37:08;;;;;;;4.67;2.97;;;26.10;99.90;;;;;;5018587;28;20481;-72
2022/06/06 09:39:55;;;;;;;4.57;2.67;;;25.70;99.90;;;;;;5035885;28;20562;-72
2022/06/06 09:42:24;;;;;;;7.10;3.22;;;25.70;99.90;;;;;;5035238;28;20068;-72
2022/06/06 09:44:59;;;;;;;6.13;3.00;;;25.90;99.90;;;;;;5023212;28;20053;-73
2022/06/06 09:48:00;;;;;;;7.57;2.88;;;26.00;99.90;;;;;;5021795;28;20037;-72
2022/06/06 09:50:57;;;;;;;6.45;3.33;;;26.20;99.90;;;;;;5035638;28;20496;-72
2022/06/06 09:53:32;;;;;;;5.47;2.72;;;26.40;99.90;;;;;;5035508;28;20689;-72
2022/06/06 09:59:38;;;;;;;5.80;2.60;;;25.80;99.90;;;;;;5019483;28;20561;-72
2022/06/06 10:02:16;;;;;;;4.70;2.67;;;25.90;99.90;;;;;;5020796;28;20346;-73
2022/06/06 10:05:17;;;;;;;4.65;2.58;;;26.00;99.90;;;;;;5022126;28;20042;-72
2022/06/06 10:08:17;;;;;;;4.25;2.53;;;26.20;99.90;;;;;;5018413;28;20037;-73
2022/06/06 10:11:20;;;;;;;5.22;2.20;;;26.20;99.90;;;;;;5019545;28;20025;-72
2022/06/06 10:14:05;;;;;;;9.93;2.55;;;26.10;99.90;;;;;;5016046;28;20042;-73
2022/06/06 10:16:54;;;;;;;5.10;2.13;;;25.90;99.90;;;;;;5019479;28;20030;-72
2022/06/06 10:19:30;;;;;;;8.38;2.65;;;26.20;99.90;;;;;;5013612;28;20080;-72
2022/06/06 10:22:02;;;;;;;6.05;2.00;;;26.10;99.90;;;;;;5032870;28;21027;-71
2022/06/06 10:24:46;;;;;;;2.83;2.03;;;26.30;99.90;;;;;;5050710;28;20036;-72
2022/06/06 10:27:33;;;;;;;5.57;2.55;;;26.40;99.90;;;;;;5016554;28;20037;-72
2022/06/06 10:30:27;;;;;;;5.70;2.47;;;26.60;99.90;;;;;;5035305;28;20167;-73
2022/06/06 10:33:14;;;;;;;5.88;2.70;;;26.40;99.90;;;;;;5033632;28;20036;-72
2022/06/06 10:35:46;;;;;;;7.57;2.90;;;26.20;99.90;;;;;;5019440;28;20030;-72
2022/06/06 10:38:35;;;;;;;7.32;2.80;;;26.20;99.90;;;;;;5024041;28;20042;-72
2022/06/06 10:41:23;;;;;;;6.63;2.45;;;26.30;99.90;;;;;;5026709;28;20176;-71
2022/06/06 10:44:01;;;;;;;8.00;2.20;;;26.50;99.90;;;;;;5023539;28;20053;-72
2022/06/06 10:46:50;;;;;;;4.80;2.20;;;26.60;99.90;;;;;;5022959;28;20056;-72
2022/06/06 10:49:25;;;;;;;7.00;2.33;;;26.90;99.90;;;;;;5019958;28;20052;-72
2022/06/06 10:52:12;;;;;;;5.97;2.40;;;26.80;99.80;;;;;;5041279;28;20042;-74
2022/06/06 10:55:10;;;;;;;6.20;2.20;;;26.70;99.90;;;;;;5021602;28;20040;-73
2022/06/06 10:57:51;;;;;;;7.57;2.38;;;27.00;99.90;;;;;;5034220;28;20483;-71
2022/06/06 11:00:39;;;;;;;5.30;2.35;;;27.20;99.90;;;;;;5021186;28;20052;-72
2022/06/06 11:03:30;;;;;;;5.78;2.53;;;27.20;99.80;;;;;;5021492;28;20379;-73
2022/06/06 11:06:15;;;;;;;6.25;2.72;;;27.20;99.70;;;;;;5036131;28;20117;-72
2022/06/06 11:09:03;;;;;;;4.50;2.20;;;27.60;99.30;;;;;;5042172;28;20121;-72
2022/06/06 11:11:55;;;;;;;4.85;2.20;;;27.60;98.70;;;;;;5023817;28;20034;-72
2022/06/06 11:14:31;;;;;;;7.75;2.70;;;27.60;98.30;;;;;;5034978;28;20033;-74
2022/06/06 11:17:27;;;;;;;6.00;2.38;;;27.50;98.90;;;;;;5025695;28;20083;-72
2022/06/06 11:20:03;;;;;;;13.02;2.55;;;27.60;99.30;;;;;;5042396;28;20061;-71
2022/06/06 11:22:37;;;;;;;5.50;2.50;;;27.50;98.80;;;;;;5054257;28;20037;-72
2022/06/06 11:25:13;;;;;;;7.07;2.55;;;27.60;99.20;;;;;;5025522;28;20088;-72
2022/06/06 11:28:15;;;;;;;5.82;2.20;;;27.50;99.30;;;;;;5027027;28;20045;-72
2022/06/06 11:31:15;;;;;;;6.40;2.22;;;27.50;99.30;;;;;;5031199;28;20033;-73
2022/06/06 11:34:01;;;;;;;3.30;2.05;;;27.40;99.20;;;;;;5002428;28;20160;-72
2022/06/06 11:37:01;;;;;;;6.88;2.45;;;27.90;98.90;;;;;;5053421;28;20026;-72
2022/06/06 11:39:32;;;;;;;5.63;2.78;;;27.60;98.40;;;;;;5020458;28;20033;-72
2022/06/06 11:42:52;;;;;;;11.35;2.50;;;28.00;98.50;;;;;;5051272;28;20050;-71
2022/06/06 11:45:43;;;;;;;5.13;2.03;;;27.60;98.50;;;;;;4997925;28;20093;-72
2022/06/06 11:48:22;;;;;;;5.10;2.17;;;28.20;98.20;;;;;;5019184;28;20497;-72
2022/06/06 11:50:51;;;;;;;7.28;2.22;;;28.40;97.90;;;;;;5024520;28;20164;-74
2022/06/06 11:53:46;;;;;;;5.95;2.20;;;27.90;97.70;;;;;;5021044;28;20045;-72
2022/06/06 11:56:26;;;;;;;6.75;2.78;;;27.80;97.90;;;;;;5020982;28;20075;-72
2022/06/06 11:59:04;;;;;;;5.65;2.40;;;27.30;98.70;;;;;;5043377;28;20040;-73
2022/06/06 12:01:47;;;;;;;8.75;3.33;;;27.70;98.20;;;;;;5017850;28;20061;-72
2022/06/06 12:04:22;;;;;;;4.53;2.40;;;28.30;97.50;;;;;;5022320;28;20072;-72
2022/06/06 12:07:08;;;;;;;6.95;2.50;;;28.10;97.40;;;;;;5019564;28;20758;-71
2022/06/06 12:10:01;;;;;;;5.72;2.38;;;28.50;97.10;;;;;;5054591;28;20440;-73
2022/06/06 12:12:30;;;;;;;5.95;2.33;;;28.50;97.50;;;;;;5021178;28;20119;-73
2022/06/06 12:15:36;;;;;;;6.13;2.10;;;28.60;97.50;;;;;;5019299;28;20118;-73
2022/06/06 12:18:05;;;;;;;4.90;2.20;;;28.70;97.00;;;;;;5019847;28;20033;-73
2022/06/06 12:20:38;;;;;;;5.40;2.28;;;28.40;97.10;;;;;;5022560;28;20041;-72
2022/06/06 12:23:11;;;;;;;8.35;2.63;;;28.40;97.00;;;;;;5033144;28;20382;-72
2022/06/06 12:25:56;;;;;;;6.72;2.10;;;28.50;97.30;;;;;;5020466;28;20039;-73
2022/06/06 12:28:40;;;;;;;6.47;2.20;;;28.60;96.90;;;;;;5022342;28;20129;-72
2022/06/06 12:31:19;;;;;;;5.13;2.10;;;28.80;96.80;;;;;;5034267;28;20061;-73
2022/06/06 12:33:54;;;;;;;6.10;2.33;;;28.00;97.00;;;;;;5024824;28;20033;-72
2022/06/06 12:36:54;;;;;;;4.32;2.20;;;28.70;96.50;;;;;;5021012;28;20474;-74
2022/06/06 12:39:59;;;;;;;4.43;2.22;;;28.70;96.20;;;;;;5021711;28;20071;-72
2022/06/06 12:42:58;;;;;;;3.65;2.22;;;28.70;96.60;;;;;;5022506;28;20192;-73
2022/06/06 12:45:34;;;;;;;5.57;2.40;;;29.50;96.20;;;;;;5012383;28;20096;-73
2022/06/06 12:48:21;;;;;;;5.82;2.10;;;29.20;96.20;;;;;;5037825;28;20045;-71
2022/06/06 12:51:02;;;;;;;6.15;2.45;;;28.60;96.70;;;;;;5022335;28;20033;-73
2022/06/06 12:53:47;;;;;;;6.18;2.55;;;28.60;97.40;;;;;;5038246;28;20068;-72
2022/06/06 12:56:38;;;;;;;10.68;2.40;;;28.30;97.10;;;;;;5023313;28;20044;-72
2022/06/06 12:59:36;;;;;;;8.82;2.60;;;28.90;97.10;;;;;;5022986;28;20041;-72
2022/06/06 13:02:16;;;;;;;5.68;2.28;;;29.30;96.50;;;;;;5012820;28;20037;-72
2022/06/06 13:04:45;;;;;;;8.80;2.35;;;28.10;97.70;;;;;;5036190;28;20496;-72
2022/06/06 13:07:39;;;;;;;6.85;2.58;;;27.80;97.90;;;;;;5036317;28;20768;-73
2022/06/06 13:10:22;;;;;;;9.23;2.75;;;28.40;97.80;;;;;;5034475;28;20033;-72
2022/06/06 13:12:51;;;;;;;8.07;2.72;;;28.30;98.20;;;;;;5020085;28;20124;-72
2022/06/06 13:15:17;;;;;;;6.53;2.63;;;28.80;97.90;;;;;;5037128;28;20076;-73
2022/06/06 13:17:58;;;;;;;5.72;2.70;;;29.10;97.70;;;;;;5016131;28;20769;-72
2022/06/06 13:20:37;;;;;;;5.47;2.40;;;28.10;98.60;;;;;;5022099;28;20042;-72
2022/06/06 13:23:18;;;;;;;4.13;2.50;;;28.10;99.10;;;;;;5035681;28;20033;-73
2022/06/06 13:26:10;;;;;;;6.80;2.17;;;28.70;97.90;;;;;;5034739;28;20120;-72
2022/06/06 13:28:54;;;;;;;4.70;2.30;;;29.20;98.10;;;;;;5019940;28;20444;-73
2022/06/06 13:31:33;;;;;;;7.72;2.40;;;28.80;97.70;;;;;;5019543;28;20049;-72
2022/06/06 13:34:29;;;;;;;11.60;2.20;;;29.00;97.90;;;;;;5038560;28;20119;-73
2022/06/06 13:37:29;;;;;;;4.80;2.30;;;27.90;98.70;;;;;;5036773;28;20038;-73
2022/06/06 13:40:07;;;;;;;6.75;2.67;;;28.20;98.40;;;;;;5019447;28;20045;-73
2022/06/06 13:43:01;;;;;;;6.15;2.40;;;28.70;97.90;;;;;;5036821;28;20037;-73
2022/06/06 13:45:49;;;;;;;4.30;2.30;;;28.80;97.70;;;;;;5019421;28;20036;-73
2022/06/06 13:48:40;;;;;;;5.47;2.40;;;28.40;98.40;;;;;;5033724;28;20037;-73
2022/06/06 13:51:21;;;;;;;6.32;2.30;;;29.10;98.20;;;;;;5018642;28;20045;-73
2022/06/06 13:54:06;;;;;;;6.17;2.10;;;28.90;97.50;;;;;;5022167;28;20040;-71
2022/06/06 13:56:41;;;;;;;5.00;2.50;;;27.70;99.20;;;;;;5019520;28;20099;-73
2022/06/06 13:59:37;;;;;;;6.07;2.40;;;28.80;99.30;;;;;;5033266;28;20037;-73
2022/06/06 14:02:09;;;;;;;6.60;2.30;;;28.50;98.70;;;;;;5017940;28;20593;-73
2022/06/06 14:04:53;;;;;;;6.40;2.30;;;28.70;99.00;;;;;;5019528;28;20064;-73
2022/06/06 14:07:37;;;;;;;5.88;2.35;;;28.30;99.50;;;;;;5019182;28;20045;-73
2022/06/06 14:10:13;;;;;;;5.13;2.42;;;28.70;99.00;;;;;;5019254;28;20309;-73